Time;durP1;ratioP1;P1;durP2;ratioP2;P2;SDS_P1;SDS_P2;PMS_P1;PMS_P2;Temp;Humidity;BMP_temperature;BMP_pressure;BME280_temperature;BME280_humidity;BME280_pressure;Samples;Min_cycle;Max_cycle;Signal;HPM_P1;HPM_P2
2022/08/08 00:02:49;;;;;;;4.57;0.90;;;18.60;37.40;;;;;;5032240;28;20822;-74
2022/08/08 00:05:38;;;;;;;2.23;1.10;;;18.50;36.90;;;;;;5023399;28;20495;-74
2022/08/08 00:08:32;;;;;;;1.80;0.87;;;18.60;37.10;;;;;;5037600;28;20448;-74
2022/08/08 00:11:25;;;;;;;2.67;0.80;;;18.40;37.90;;;;;;5034434;28;20475;-74
2022/08/08 00:14:22;;;;;;;2.80;1.10;;;18.20;37.60;;;;;;5035096;28;20447;-75
2022/08/08 00:17:13;;;;;;;2.00;1.10;;;18.10;37.50;;;;;;5041188;28;20823;-74
2022/08/08 00:20:02;;;;;;;1.70;0.77;;;18.10;37.50;;;;;;5042930;28;20443;-75
2022/08/08 00:22:50;;;;;;;3.37;1.17;;;18.30;37.70;;;;;;5031601;28;21029;-74
2022/08/08 00:25:40;;;;;;;2.17;0.90;;;18.30;37.80;;;;;;5036395;28;20439;-74
2022/08/08 00:28:30;;;;;;;2.00;1.07;;;18.30;39.30;;;;;;5041239;28;21119;-74
2022/08/08 00:31:21;;;;;;;1.70;0.90;;;18.20;38.90;;;;;;5039683;28;20495;-73
2022/08/08 00:38:15;;;;;;;5.97;1.00;;;18.20;40.40;;;;;;5033638;28;20493;-74
2022/08/08 00:41:41;;;;;;;1.77;0.70;;;18.10;38.50;;;;;;5031385;28;20455;-73
2022/08/08 00:44:52;;;;;;;2.80;1.00;;;18.00;38.40;;;;;;5028122;28;20607;-74
2022/08/08 00:48:09;;;;;;;1.70;0.97;;;18.00;39.60;;;;;;5041344;28;20504;-74
2022/08/08 00:51:33;;;;;;;5.00;1.40;;;18.00;40.00;;;;;;5031418;28;20480;-74
2022/08/08 00:54:51;;;;;;;2.03;1.00;;;18.10;40.30;;;;;;5032843;28;20448;-74
2022/08/08 00:58:29;;;;;;;6.90;1.00;;;18.10;40.60;;;;;;5030886;28;20517;-74
2022/08/08 01:01:21;;;;;;;1.50;0.70;;;18.10;41.00;;;;;;5038798;28;21092;-74
2022/08/08 01:04:29;;;;;;;2.07;1.00;;;18.00;40.00;;;;;;5036504;28;20448;-75
2022/08/08 01:08:18;;;;;;;2.73;0.97;;;18.00;40.10;;;;;;5043200;28;20442;-74
2022/08/08 01:11:55;;;;;;;4.53;0.97;;;17.90;40.40;;;;;;4947339;28;20483;-74
2022/08/08 01:15:10;;;;;;;3.80;1.00;;;17.90;41.00;;;;;;4972250;28;20826;-74
2022/08/08 01:18:44;;;;;;;1.80;1.00;;;17.80;40.80;;;;;;5045904;28;20443;-74
2022/08/08 01:21:50;;;;;;;4.03;0.90;;;17.60;41.70;;;;;;5032855;28;20465;-74
2022/08/08 01:24:57;;;;;;;3.37;1.40;;;17.60;41.30;;;;;;5036143;28;20889;-74
2022/08/08 01:28:03;;;;;;;4.10;0.93;;;17.60;40.60;;;;;;5040721;28;20448;-74
2022/08/08 01:31:24;;;;;;;3.53;0.93;;;17.60;41.20;;;;;;5039549;28;20895;-74
2022/08/08 01:34:44;;;;;;;3.10;1.00;;;17.70;41.80;;;;;;5037487;28;21149;-74
2022/08/08 01:38:15;;;;;;;1.80;1.00;;;17.70;40.70;;;;;;5036765;28;20448;-74
2022/08/08 01:41:10;;;;;;;5.00;1.00;;;17.70;41.70;;;;;;5041598;28;21072;-74
2022/08/08 01:44:17;;;;;;;3.80;1.33;;;17.60;42.00;;;;;;5034503;28;20606;-74
2022/08/08 01:47:14;;;;;;;4.23;0.97;;;17.60;42.80;;;;;;5042890;28;20581;-74
2022/08/08 01:50:08;;;;;;;1.70;1.00;;;17.60;42.70;;;;;;5039667;28;20452;-74
2022/08/08 01:52:59;;;;;;;4.83;1.20;;;17.50;42.80;;;;;;5035688;28;21017;-74
2022/08/08 01:55:55;;;;;;;4.23;1.10;;;17.40;42.40;;;;;;5046837;28;20805;-74
2022/08/08 01:58:48;;;;;;;2.20;0.70;;;17.40;42.20;;;;;;5040032;28;20449;-75
2022/08/08 02:01:59;;;;;;;1.90;1.07;;;17.20;42.20;;;;;;5038063;28;20472;-74
2022/08/08 02:04:58;;;;;;;5.40;0.90;;;17.20;43.10;;;;;;5032121;28;20448;-74
2022/08/08 02:08:00;;;;;;;1.70;0.90;;;17.10;44.10;;;;;;5044458;28;20447;-74
2022/08/08 02:10:58;;;;;;;1.63;0.87;;;17.20;44.50;;;;;;5040155;28;20497;-74
2022/08/08 02:13:51;;;;;;;3.83;1.17;;;17.20;44.40;;;;;;5028283;28;20821;-74
2022/08/08 02:16:45;;;;;;;3.90;1.20;;;17.20;44.00;;;;;;5043328;28;20491;-74
2022/08/08 02:19:39;;;;;;;1.60;0.90;;;17.10;44.00;;;;;;5037194;28;21224;-74
2022/08/08 02:22:32;;;;;;;1.50;0.80;;;17.00;44.60;;;;;;5023661;28;20465;-74
2022/08/08 02:25:23;;;;;;;1.97;1.30;;;17.10;44.90;;;;;;5035416;28;20517;-74
2022/08/08 02:28:16;;;;;;;2.60;1.10;;;17.10;45.10;;;;;;5037129;28;20451;-74
2022/08/08 02:31:06;;;;;;;2.23;1.47;;;16.90;45.10;;;;;;5033417;28;20486;-74
2022/08/08 02:34:10;;;;;;;1.97;1.30;;;17.00;46.40;;;;;;5032635;28;20442;-74
2022/08/08 02:37:06;;;;;;;3.40;1.10;;;17.10;46.10;;;;;;5031454;28;20451;-74
2022/08/08 02:40:03;;;;;;;2.70;1.30;;;17.00;45.40;;;;;;5027090;28;20444;-74
2022/08/08 02:43:28;;;;;;;1.70;1.00;;;16.90;46.00;;;;;;5027250;28;20457;-74
2022/08/08 02:46:39;;;;;;;3.70;1.00;;;16.70;46.20;;;;;;5038285;28;20468;-74
2022/08/08 02:50:03;;;;;;;7.60;1.30;;;16.60;46.80;;;;;;5028564;28;20427;-73
2022/08/08 02:53:03;;;;;;;2.63;1.00;;;16.60;48.10;;;;;;5008900;28;21037;-74
2022/08/08 02:56:28;;;;;;;2.00;1.00;;;16.50;48.20;;;;;;5034445;28;20657;-74
2022/08/08 03:00:17;;;;;;;2.60;1.20;;;16.50;48.90;;;;;;5033427;28;20469;-74
2022/08/08 03:04:08;;;;;;;2.13;1.10;;;16.50;47.90;;;;;;5029285;28;20941;-74
2022/08/08 03:07:39;;;;;;;2.03;1.03;;;16.40;47.90;;;;;;5034984;28;20961;-73
2022/08/08 03:10:49;;;;;;;4.53;1.10;;;16.40;48.80;;;;;;5037054;28;20444;-74
2022/08/08 03:13:56;;;;;;;1.70;0.87;;;16.30;48.90;;;;;;5032839;28;20802;-74
2022/08/08 03:16:49;;;;;;;1.97;0.83;;;16.20;49.30;;;;;;5030371;28;20440;-74
2022/08/08 03:19:50;;;;;;;1.70;1.10;;;16.10;49.10;;;;;;5028666;28;20961;-74
2022/08/08 03:22:47;;;;;;;1.80;1.03;;;16.10;49.50;;;;;;5025805;28;20585;-74
2022/08/08 03:25:35;;;;;;;2.00;1.07;;;16.10;49.10;;;;;;5026509;28;20479;-74
2022/08/08 03:28:27;;;;;;;4.17;1.10;;;16.00;50.10;;;;;;5030953;28;20929;-74
2022/08/08 03:34:17;;;;;;;2.83;1.27;;;15.90;50.20;;;;;;5030731;28;20495;-73
2022/08/08 03:37:02;;;;;;;2.30;1.10;;;15.90;50.90;;;;;;5036074;28;20455;-74
2022/08/08 03:39:49;;;;;;;2.57;1.07;;;15.90;51.00;;;;;;5036567;28;20540;-74
2022/08/08 03:42:37;;;;;;;2.03;1.23;;;15.90;51.40;;;;;;5026628;28;20431;-74
2022/08/08 03:45:24;;;;;;;2.50;1.30;;;16.00;51.20;;;;;;5033074;28;20441;-74
2022/08/08 03:48:11;;;;;;;2.70;1.30;;;16.00;51.40;;;;;;5031439;28;20444;-74
2022/08/08 03:50:56;;;;;;;3.47;2.30;;;16.00;50.80;;;;;;5026467;28;20992;-74
2022/08/08 03:53:42;;;;;;;8.10;1.63;;;15.90;51.20;;;;;;5035350;28;20444;-74
2022/08/08 03:56:33;;;;;;;7.57;1.63;;;15.80;51.70;;;;;;5031162;28;20448;-74
2022/08/08 03:59:19;;;;;;;2.70;1.40;;;15.70;52.60;;;;;;5033198;28;20460;-74
2022/08/08 04:02:15;;;;;;;2.40;1.30;;;15.70;52.20;;;;;;5030682;28;21079;-74
2022/08/08 04:05:04;;;;;;;2.43;1.23;;;15.70;53.00;;;;;;5031971;28;20452;-74
2022/08/08 04:07:49;;;;;;;3.53;1.13;;;15.60;53.40;;;;;;5032396;28;20446;-74
2022/08/08 04:10:36;;;;;;;5.83;1.30;;;15.70;52.70;;;;;;5027775;28;20487;-74
2022/08/08 04:13:23;;;;;;;2.83;1.10;;;15.60;53.10;;;;;;5029252;28;20560;-74
2022/08/08 04:16:09;;;;;;;10.83;1.57;;;15.60;53.40;;;;;;5031691;28;21009;-74
2022/08/08 04:18:55;;;;;;;2.40;1.20;;;15.60;53.20;;;;;;5035434;28;21089;-75
2022/08/08 04:21:40;;;;;;;3.50;1.50;;;15.60;53.80;;;;;;5028057;28;20463;-74
2022/08/08 04:24:26;;;;;;;1.90;1.20;;;15.40;54.40;;;;;;5029054;28;20998;-74
2022/08/08 04:27:12;;;;;;;2.70;1.10;;;15.40;55.10;;;;;;5034591;28;20853;-74
2022/08/08 04:29:59;;;;;;;3.47;1.53;;;15.40;55.90;;;;;;5029807;28;20449;-74
2022/08/08 04:32:45;;;;;;;4.90;2.40;;;15.40;55.20;;;;;;5023328;28;21135;-74
2022/08/08 04:35:30;;;;;;;5.83;1.30;;;15.30;56.40;;;;;;5036102;28;20986;-74
2022/08/08 04:38:16;;;;;;;3.40;1.20;;;15.40;56.40;;;;;;5031711;28;20560;-74
2022/08/08 04:41:02;;;;;;;1.70;1.20;;;15.40;56.80;;;;;;5026596;28;20594;-74
2022/08/08 04:43:47;;;;;;;4.27;1.57;;;15.50;56.80;;;;;;5032141;28;20531;-74
2022/08/08 04:46:34;;;;;;;3.60;1.30;;;15.50;56.30;;;;;;5028575;28;20444;-74
2022/08/08 04:49:20;;;;;;;2.80;1.37;;;15.60;56.80;;;;;;5030694;28;20471;-74
2022/08/08 04:52:06;;;;;;;4.03;2.03;;;15.70;56.80;;;;;;5030465;28;20603;-73
2022/08/08 04:54:52;;;;;;;3.30;1.40;;;15.70;56.20;;;;;;5032801;28;20451;-73
2022/08/08 04:57:37;;;;;;;5.70;1.40;;;15.70;56.20;;;;;;5034468;28;20595;-74
2022/08/08 05:00:24;;;;;;;8.50;1.07;;;15.90;56.60;;;;;;5027481;28;20979;-74
2022/08/08 05:03:11;;;;;;;3.70;1.37;;;15.90;56.30;;;;;;5032398;28;20440;-74
2022/08/08 05:05:57;;;;;;;4.57;1.40;;;15.90;55.90;;;;;;5033698;28;21010;-74
2022/08/08 05:08:43;;;;;;;2.03;1.30;;;16.00;56.20;;;;;;5030227;28;20444;-73
2022/08/08 05:11:29;;;;;;;1.77;1.00;;;16.00;56.30;;;;;;5035269;28;20475;-73
2022/08/08 05:14:14;;;;;;;1.77;1.10;;;16.00;56.40;;;;;;5038467;28;20451;-74
2022/08/08 05:17:00;;;;;;;5.00;1.23;;;16.10;55.80;;;;;;5036551;28;20418;-74
2022/08/08 05:19:47;;;;;;;2.23;1.50;;;16.30;56.50;;;;;;5026825;28;20452;-74
2022/08/08 05:22:33;;;;;;;2.43;1.23;;;16.30;55.60;;;;;;5029278;28;20484;-74
2022/08/08 05:25:19;;;;;;;1.80;1.17;;;16.40;55.60;;;;;;5034341;28;20413;-74
2022/08/08 05:28:04;;;;;;;6.03;1.33;;;16.50;55.70;;;;;;5034253;28;20503;-73
2022/08/08 05:30:50;;;;;;;3.20;1.30;;;16.60;55.60;;;;;;5023394;28;20472;-73
2022/08/08 05:33:35;;;;;;;2.17;1.20;;;16.80;55.10;;;;;;5030763;28;20575;-72
2022/08/08 05:36:25;;;;;;;1.93;1.03;;;16.90;54.40;;;;;;5033611;28;20863;-73
2022/08/08 05:39:11;;;;;;;2.07;1.10;;;16.80;56.10;;;;;;5022958;28;20444;-72
2022/08/08 05:41:59;;;;;;;3.33;1.33;;;17.00;55.20;;;;;;5037082;28;20488;-72
2022/08/08 05:44:48;;;;;;;7.20;1.10;;;17.10;55.10;;;;;;5045403;28;20570;-72
2022/08/08 05:47:34;;;;;;;8.87;1.50;;;17.20;54.80;;;;;;5044906;28;20517;-72
2022/08/08 05:50:20;;;;;;;3.90;1.07;;;17.30;54.70;;;;;;5028990;28;20443;-72
2022/08/08 05:53:08;;;;;;;2.73;1.20;;;17.60;54.10;;;;;;5035981;28;21399;-72
2022/08/08 05:55:55;;;;;;;5.13;1.47;;;17.70;54.20;;;;;;5034609;28;20444;-73
2022/08/08 05:58:43;;;;;;;2.43;1.07;;;17.80;53.20;;;;;;5030388;28;20448;-73
2022/08/08 06:01:29;;;;;;;2.80;1.00;;;17.90;52.70;;;;;;5029856;28;20472;-73
2022/08/08 06:04:17;;;;;;;4.77;1.10;;;18.00;50.90;;;;;;5038357;28;20977;-72
2022/08/08 06:07:03;;;;;;;2.20;1.30;;;18.20;51.40;;;;;;5032221;28;20511;-72
2022/08/08 06:09:52;;;;;;;2.23;1.20;;;18.40;48.80;;;;;;5034246;28;20443;-72
2022/08/08 06:12:38;;;;;;;2.57;1.23;;;18.50;48.70;;;;;;5029902;28;21006;-72
2022/08/08 06:15:24;;;;;;;5.77;2.00;;;18.60;49.20;;;;;;5037735;28;20467;-72
2022/08/08 06:18:10;;;;;;;7.73;1.50;;;18.80;49.70;;;;;;5031585;28;21014;-72
2022/08/08 06:20:58;;;;;;;3.20;1.07;;;18.90;48.20;;;;;;5034885;28;20531;-72
2022/08/08 06:23:43;;;;;;;3.10;1.30;;;19.00;47.70;;;;;;5044546;28;21052;-72
2022/08/08 06:26:36;;;;;;;2.87;0.97;;;19.10;47.30;;;;;;5043769;28;20452;-72
2022/08/08 06:29:30;;;;;;;4.00;1.07;;;19.30;47.40;;;;;;5028451;28;20602;-72
2022/08/08 06:32:19;;;;;;;2.43;0.93;;;19.50;44.50;;;;;;5038280;28;20487;-72
2022/08/08 06:35:08;;;;;;;2.83;1.13;;;19.60;42.90;;;;;;5044648;28;20447;-72
2022/08/08 06:37:58;;;;;;;2.10;1.00;;;19.80;39.40;;;;;;5030951;28;21001;-72
2022/08/08 06:40:44;;;;;;;2.70;1.30;;;20.10;36.80;;;;;;5033781;28;21072;-73
2022/08/08 06:43:35;;;;;;;2.50;1.30;;;20.30;33.60;;;;;;5040951;28;20440;-72
2022/08/08 06:46:21;;;;;;;3.30;1.30;;;20.50;33.30;;;;;;5034967;28;20830;-72
2022/08/08 06:49:07;;;;;;;2.50;0.90;;;20.60;33.10;;;;;;5046199;28;20428;-71
2022/08/08 06:51:53;;;;;;;5.90;1.13;;;20.80;32.40;;;;;;5030216;28;20472;-72
2022/08/08 06:54:41;;;;;;;3.80;0.87;;;20.90;31.60;;;;;;5041504;28;21210;-73
2022/08/08 06:57:26;;;;;;;3.67;1.50;;;21.10;29.90;;;;;;5027676;28;20442;-73
2022/08/08 07:00:15;;;;;;;8.60;1.20;;;21.20;29.60;;;;;;5043544;28;20451;-72
2022/08/08 07:03:07;;;;;;;3.50;1.20;;;21.20;30.70;;;;;;5047304;28;20424;-71
2022/08/08 07:05:55;;;;;;;2.60;1.00;;;21.30;30.10;;;;;;5041770;28;20499;-71
2022/08/08 07:08:46;;;;;;;1.83;0.90;;;21.40;29.30;;;;;;5038248;28;20420;-71
2022/08/08 07:11:36;;;;;;;2.60;1.20;;;21.50;29.30;;;;;;5036644;28;20547;-72
2022/08/08 07:14:27;;;;;;;1.70;0.90;;;21.50;29.70;;;;;;5044159;28;20519;-71
2022/08/08 07:17:17;;;;;;;3.63;1.40;;;21.60;29.40;;;;;;5036332;28;20453;-72
2022/08/08 07:20:06;;;;;;;4.90;1.20;;;21.80;29.60;;;;;;5044982;28;20941;-72
2022/08/08 07:23:00;;;;;;;2.53;1.10;;;21.90;28.10;;;;;;5046683;28;20434;-72
2022/08/08 07:25:50;;;;;;;2.00;1.07;;;22.00;28.10;;;;;;5038285;28;20444;-71
2022/08/08 07:28:37;;;;;;;5.20;1.00;;;22.10;28.90;;;;;;5041155;28;20478;-72
2022/08/08 07:31:23;;;;;;;2.83;1.50;;;22.10;28.10;;;;;;5043169;28;20443;-72
2022/08/08 07:34:12;;;;;;;2.30;1.10;;;22.20;28.20;;;;;;5044856;28;20425;-72
2022/08/08 07:36:59;;;;;;;2.40;1.20;;;22.30;28.30;;;;;;5035523;28;21024;-72
2022/08/08 07:39:45;;;;;;;4.70;2.13;;;22.30;27.90;;;;;;5044274;28;20948;-72
2022/08/08 07:42:32;;;;;;;3.60;1.00;;;22.40;27.70;;;;;;5030884;28;20487;-72
2022/08/08 07:45:18;;;;;;;3.63;1.10;;;22.40;28.00;;;;;;5026885;28;20465;-71
2022/08/08 07:48:04;;;;;;;3.07;1.10;;;22.50;28.50;;;;;;5040654;28;20934;-72
2022/08/08 07:50:53;;;;;;;4.60;1.30;;;22.50;28.20;;;;;;5049411;28;20432;-72
2022/08/08 07:53:44;;;;;;;2.57;1.30;;;22.60;28.50;;;;;;5046391;28;20525;-72
2022/08/08 07:56:36;;;;;;;3.87;1.50;;;22.60;28.50;;;;;;5025827;28;20464;-72
2022/08/08 07:59:26;;;;;;;2.93;1.17;;;22.80;26.30;;;;;;5031347;28;20443;-72
2022/08/08 08:02:20;;;;;;;3.67;1.00;;;22.80;27.00;;;;;;5046363;28;20546;-72
2022/08/08 08:05:12;;;;;;;5.67;1.60;;;22.90;27.00;;;;;;5042759;28;20954;-72
2022/08/08 08:08:04;;;;;;;3.30;1.07;;;23.00;27.30;;;;;;5031190;28;20444;-72
2022/08/08 08:10:51;;;;;;;3.20;1.20;;;23.10;26.10;;;;;;5045549;28;20447;-71
2022/08/08 08:13:42;;;;;;;2.00;1.07;;;23.20;26.30;;;;;;5042470;28;20487;-72
2022/08/08 08:16:30;;;;;;;2.57;1.13;;;23.20;27.40;;;;;;5030829;28;20941;-72
2022/08/08 08:19:17;;;;;;;2.40;1.10;;;23.20;27.20;;;;;;5034162;28;20540;-72
2022/08/08 08:22:03;;;;;;;2.40;1.20;;;23.20;26.30;;;;;;5027633;28;20462;-72
2022/08/08 08:24:50;;;;;;;3.93;1.40;;;23.30;27.30;;;;;;5031233;28;20442;-73
2022/08/08 08:27:36;;;;;;;3.77;1.20;;;23.50;26.80;;;;;;5025525;28;20956;-72
2022/08/08 08:30:22;;;;;;;3.17;1.37;;;23.60;26.60;;;;;;5031856;28;20532;-72
2022/08/08 08:33:07;;;;;;;2.70;1.23;;;23.80;27.60;;;;;;5034484;28;20484;-72
2022/08/08 08:35:53;;;;;;;3.00;1.30;;;23.80;26.20;;;;;;5028348;28;20440;-71
2022/08/08 08:38:38;;;;;;;4.23;1.10;;;23.90;27.30;;;;;;5037201;28;20824;-72
2022/08/08 08:41:26;;;;;;;6.53;1.10;;;24.00;26.60;;;;;;5029849;28;20467;-72
2022/08/08 08:44:12;;;;;;;3.77;1.63;;;24.10;26.90;;;;;;5034665;28;20917;-72
2022/08/08 08:47:00;;;;;;;3.23;1.10;;;24.30;25.80;;;;;;5032575;28;20448;-72
2022/08/08 08:49:45;;;;;;;1.93;1.20;;;24.10;24.70;;;;;;5027473;28;20472;-72
2022/08/08 08:52:31;;;;;;;3.40;1.50;;;24.10;26.60;;;;;;5029395;28;20624;-72
2022/08/08 08:55:18;;;;;;;1.90;1.10;;;24.20;26.90;;;;;;5028500;28;20451;-72
2022/08/08 08:58:07;;;;;;;2.53;1.30;;;24.40;26.50;;;;;;5038393;28;20436;-71
2022/08/08 09:00:54;;;;;;;4.67;1.40;;;24.30;25.40;;;;;;5041608;28;21034;-72
2022/08/08 09:03:43;;;;;;;5.77;1.40;;;24.40;26.90;;;;;;5035777;28;20964;-72
2022/08/08 09:06:37;;;;;;;2.30;1.20;;;24.50;26.50;;;;;;5036501;28;20805;-72
2022/08/08 09:09:25;;;;;;;16.37;2.40;;;24.50;25.50;;;;;;5031427;28;20433;-72
2022/08/08 09:12:11;;;;;;;2.90;1.20;;;24.60;25.90;;;;;;5036676;28;20610;-71
2022/08/08 09:14:59;;;;;;;3.33;1.30;;;24.70;26.40;;;;;;5031365;28;20444;-72
2022/08/08 09:17:46;;;;;;;2.33;1.17;;;24.90;25.60;;;;;;5036189;28;20562;-72
2022/08/08 09:20:33;;;;;;;2.73;1.27;;;25.00;24.80;;;;;;5042488;28;20425;-72
2022/08/08 09:23:19;;;;;;;3.23;1.30;;;25.00;24.80;;;;;;5033415;28;20447;-71
2022/08/08 09:26:11;;;;;;;2.60;1.40;;;25.10;25.70;;;;;;5036783;28;20526;-72
2022/08/08 09:29:00;;;;;;;4.30;1.60;;;25.20;26.80;;;;;;5045994;28;20475;-71
2022/08/08 09:31:53;;;;;;;3.80;1.40;;;25.30;25.40;;;;;;5047924;28;20571;-72
2022/08/08 09:34:40;;;;;;;1.90;1.20;;;25.30;25.20;;;;;;5023487;28;20483;-71
2022/08/08 09:37:29;;;;;;;3.47;1.30;;;25.40;24.50;;;;;;5039296;28;20447;-72
2022/08/08 09:40:16;;;;;;;4.33;1.30;;;25.50;24.80;;;;;;5028264;28;20444;-72
2022/08/08 09:43:08;;;;;;;2.60;1.30;;;25.70;24.30;;;;;;5040476;28;20440;-71
2022/08/08 09:45:59;;;;;;;2.87;1.50;;;25.80;24.60;;;;;;5031936;28;20821;-72
2022/08/08 09:48:47;;;;;;;2.23;1.10;;;25.80;23.60;;;;;;5052996;28;20550;-72
2022/08/08 09:51:33;;;;;;;2.97;1.10;;;25.80;22.20;;;;;;5033890;28;20474;-72
2022/08/08 09:54:21;;;;;;;3.43;1.43;;;25.80;23.60;;;;;;5029504;28;20830;-70
2022/08/08 09:57:09;;;;;;;2.50;1.47;;;25.90;23.10;;;;;;5036282;28;20448;-72
2022/08/08 09:59:58;;;;;;;3.90;1.30;;;25.90;23.30;;;;;;5039948;28;20443;-72
2022/08/08 10:02:47;;;;;;;5.30;1.53;;;26.10;24.10;;;;;;5033142;28;20841;-72
2022/08/08 10:05:37;;;;;;;3.07;1.20;;;26.20;23.30;;;;;;5036679;28;20517;-72
2022/08/08 10:08:22;;;;;;;4.90;2.10;;;26.30;22.20;;;;;;5037982;28;20495;-71
2022/08/08 10:11:09;;;;;;;2.30;1.30;;;26.30;22.30;;;;;;5037324;28;20607;-72
2022/08/08 10:13:55;;;;;;;2.30;1.37;;;26.30;21.40;;;;;;5032672;28;20490;-72
2022/08/08 10:16:42;;;;;;;3.50;1.20;;;26.30;19.80;;;;;;5032076;28;20463;-73
2022/08/08 10:19:36;;;;;;;6.60;1.20;;;26.30;19.80;;;;;;5042332;28;21061;-72
2022/08/08 10:22:24;;;;;;;3.00;1.53;;;26.30;19.80;;;;;;5043124;28;20463;-71
2022/08/08 10:25:19;;;;;;;2.30;1.20;;;26.50;20.70;;;;;;5027365;28;20960;-72
2022/08/08 10:28:06;;;;;;;3.13;1.30;;;26.70;21.20;;;;;;5035517;28;20973;-72
2022/08/08 10:30:57;;;;;;;2.40;1.40;;;26.80;20.80;;;;;;5037058;28;20446;-72
2022/08/08 10:33:42;;;;;;;2.93;1.50;;;27.00;20.30;;;;;;5027454;28;20468;-72
2022/08/08 10:36:29;;;;;;;4.27;1.50;;;27.00;20.30;;;;;;5032012;28;20448;-72
2022/08/08 10:39:20;;;;;;;4.90;1.67;;;26.90;20.20;;;;;;5034682;28;20857;-72
2022/08/08 10:42:06;;;;;;;2.43;1.40;;;27.10;21.00;;;;;;5039548;28;20463;-71
2022/08/08 10:45:01;;;;;;;2.60;1.40;;;27.30;20.50;;;;;;5027535;28;20962;-73
2022/08/08 10:47:52;;;;;;;6.27;1.60;;;27.30;20.50;;;;;;5039981;28;20468;-72
2022/08/08 10:50:39;;;;;;;2.27;1.17;;;27.40;19.40;;;;;;5042079;28;20431;-72
2022/08/08 10:53:35;;;;;;;8.90;1.23;;;27.30;19.60;;;;;;5027983;28;20535;-71
2022/08/08 10:56:22;;;;;;;2.40;1.13;;;27.30;20.10;;;;;;5040460;28;21067;-72
2022/08/08 10:59:09;;;;;;;2.13;1.27;;;27.40;20.60;;;;;;5028803;28;20448;-71
2022/08/08 11:01:54;;;;;;;2.93;1.20;;;27.60;19.50;;;;;;5031743;28;20482;-72
2022/08/08 11:04:44;;;;;;;2.53;1.20;;;27.80;20.50;;;;;;5029575;28;20448;-72
2022/08/08 11:07:32;;;;;;;2.60;1.40;;;28.00;19.50;;;;;;5034986;28;20444;-71
2022/08/08 11:10:20;;;;;;;2.87;1.50;;;28.10;17.70;;;;;;5028961;28;20503;-72
2022/08/08 11:13:08;;;;;;;3.30;1.50;;;28.20;18.30;;;;;;5031876;28;20460;-72
2022/08/08 11:15:55;;;;;;;6.40;1.77;;;28.30;17.80;;;;;;5038864;28;21021;-72
2022/08/08 11:18:43;;;;;;;3.10;1.27;;;28.30;18.70;;;;;;5044481;28;20493;-72
2022/08/08 11:21:33;;;;;;;2.63;1.23;;;28.40;17.90;;;;;;5035942;28;20459;-72
2022/08/08 11:24:19;;;;;;;8.80;1.30;;;28.30;17.20;;;;;;5031403;28;20443;-71
2022/08/08 11:27:06;;;;;;;2.97;1.13;;;28.30;17.80;;;;;;5036539;28;20444;-72
2022/08/08 11:29:57;;;;;;;3.30;1.40;;;28.20;17.20;;;;;;5040833;28;20451;-72
2022/08/08 11:32:43;;;;;;;4.30;1.10;;;28.30;18.30;;;;;;5045052;28;20467;-72
2022/08/08 11:35:29;;;;;;;2.17;1.10;;;28.40;17.30;;;;;;5025172;28;20715;-72
2022/08/08 11:38:14;;;;;;;3.40;1.20;;;28.40;17.50;;;;;;5036448;28;20457;-72
2022/08/08 11:41:01;;;;;;;2.77;1.20;;;28.50;17.90;;;;;;5035899;28;20473;-72
2022/08/08 11:43:48;;;;;;;2.27;1.00;;;28.60;18.10;;;;;;5029672;28;20573;-72
2022/08/08 11:46:35;;;;;;;3.53;1.30;;;28.80;16.40;;;;;;5024175;28;20501;-72
2022/08/08 11:49:21;;;;;;;2.53;1.23;;;28.90;16.70;;;;;;5035605;28;20590;-72
2022/08/08 11:52:07;;;;;;;2.93;1.30;;;29.00;15.60;;;;;;5039401;28;20481;-71
2022/08/08 11:54:53;;;;;;;2.90;1.37;;;29.10;17.70;;;;;;5024938;28;20475;-71
2022/08/08 11:57:39;;;;;;;2.60;1.10;;;29.10;16.60;;;;;;5036718;28;20598;-71
2022/08/08 12:00:28;;;;;;;6.80;1.50;;;29.20;16.30;;;;;;5031475;28;20930;-72
2022/08/08 12:03:22;;;;;;;2.40;1.20;;;29.30;16.00;;;;;;5024289;28;20460;-72
2022/08/08 12:06:13;;;;;;;4.17;1.53;;;29.30;16.50;;;;;;5025940;28;20538;-72
2022/08/08 12:09:06;;;;;;;2.70;1.20;;;29.40;16.70;;;;;;5032436;28;20802;-72
2022/08/08 12:11:51;;;;;;;3.00;1.50;;;29.50;15.50;;;;;;5036020;28;20480;-72
2022/08/08 12:14:37;;;;;;;2.70;1.30;;;29.40;14.90;;;;;;5034228;28;20530;-72
2022/08/08 12:17:32;;;;;;;2.30;1.07;;;29.40;15.20;;;;;;5032824;28;20428;-72
2022/08/08 12:20:19;;;;;;;4.40;1.20;;;29.50;14.30;;;;;;5038728;28;20587;-72
2022/08/08 12:23:05;;;;;;;2.40;1.20;;;29.60;15.00;;;;;;5037339;28;20439;-71
2022/08/08 12:25:51;;;;;;;3.17;1.37;;;29.50;14.20;;;;;;5033204;28;20441;-72
2022/08/08 12:28:37;;;;;;;2.83;1.13;;;29.60;15.00;;;;;;5037497;28;20451;-72
2022/08/08 12:31:33;;;;;;;2.77;1.33;;;29.80;15.10;;;;;;5041341;28;20810;-72
2022/08/08 12:34:19;;;;;;;2.77;1.17;;;29.90;15.10;;;;;;5028800;28;20475;-72
2022/08/08 12:37:09;;;;;;;4.80;1.40;;;30.00;15.90;;;;;;5034039;28;20868;-72
2022/08/08 12:39:55;;;;;;;2.30;1.30;;;30.20;14.80;;;;;;5028724;28;21077;-72
2022/08/08 12:42:45;;;;;;;2.93;1.30;;;30.30;15.10;;;;;;5031257;28;20542;-72
2022/08/08 12:45:34;;;;;;;2.80;1.30;;;30.40;13.70;;;;;;5035091;28;20479;-72
2022/08/08 12:48:23;;;;;;;2.30;1.20;;;30.20;12.60;;;;;;5038570;28;20448;-72
2022/08/08 12:51:19;;;;;;;3.20;1.40;;;30.30;13.80;;;;;;5025749;28;20834;-72
2022/08/08 12:54:07;;;;;;;3.03;1.10;;;30.30;14.30;;;;;;5031399;28;20467;-72
2022/08/08 12:56:53;;;;;;;5.03;1.07;;;30.30;13.40;;;;;;5036467;28;20572;-72
2022/08/08 12:59:50;;;;;;;2.80;0.97;;;30.20;13.00;;;;;;5042739;28;20443;-72
2022/08/08 13:02:38;;;;;;;4.47;1.17;;;30.30;13.10;;;;;;5030469;28;21013;-72
2022/08/08 13:05:24;;;;;;;8.03;1.63;;;30.50;14.20;;;;;;5040384;28;20448;-72
2022/08/08 13:08:15;;;;;;;5.60;1.13;;;30.70;14.00;;;;;;5036734;28;20452;-72
2022/08/08 13:11:03;;;;;;;3.80;1.07;;;30.90;14.20;;;;;;5040815;28;20599;-72
2022/08/08 13:14:02;;;;;;;6.00;1.33;;;31.10;14.00;;;;;;5033516;28;20554;-72
2022/08/08 13:16:49;;;;;;;3.23;1.10;;;31.10;11.60;;;;;;5048800;28;20451;-72
2022/08/08 13:19:36;;;;;;;4.33;1.60;;;31.20;12.80;;;;;;5040276;28;20471;-72
2022/08/08 13:22:23;;;;;;;3.83;1.60;;;31.20;12.00;;;;;;5039079;28;20543;-72
2022/08/08 13:25:14;;;;;;;4.00;1.00;;;31.20;12.30;;;;;;5032689;28;20818;-72
2022/08/08 13:28:01;;;;;;;4.10;1.03;;;31.40;12.40;;;;;;5044762;28;20514;-72
2022/08/08 13:30:48;;;;;;;3.70;1.17;;;31.60;12.20;;;;;;5041864;28;20957;-72
2022/08/08 13:33:34;;;;;;;3.13;1.20;;;31.80;11.30;;;;;;5033076;28;20552;-72
2022/08/08 13:36:20;;;;;;;3.27;1.20;;;31.90;11.50;;;;;;5041278;28;20869;-73
2022/08/08 13:39:07;;;;;;;2.80;1.37;;;31.90;11.40;;;;;;5038180;28;20819;-72
2022/08/08 13:41:55;;;;;;;2.90;1.23;;;31.60;11.10;;;;;;5031862;28;20557;-72
2022/08/08 13:44:42;;;;;;;2.93;1.27;;;31.50;11.10;;;;;;5037774;28;20469;-72
2022/08/08 13:47:28;;;;;;;5.00;1.50;;;31.60;11.70;;;;;;5045435;28;20506;-72
2022/08/08 13:50:19;;;;;;;3.07;1.20;;;31.80;11.30;;;;;;5040292;28;20815;-72
2022/08/08 13:53:05;;;;;;;2.90;1.00;;;31.90;11.60;;;;;;5030227;28;20459;-72
2022/08/08 13:55:57;;;;;;;9.40;1.03;;;32.00;11.40;;;;;;5033353;28;20472;-72
2022/08/08 13:58:49;;;;;;;4.10;1.40;;;32.10;11.50;;;;;;5035839;28;20816;-72
2022/08/08 14:01:36;;;;;;;2.37;0.90;;;32.30;12.70;;;;;;5031862;28;20457;-72
2022/08/08 14:04:24;;;;;;;4.23;1.23;;;32.50;10.70;;;;;;5034392;28;20567;-72
2022/08/08 14:07:10;;;;;;;3.10;1.40;;;32.60;11.10;;;;;;5039754;28;20436;-72
2022/08/08 14:09:59;;;;;;;3.90;1.00;;;32.50;10.50;;;;;;5040645;28;20493;-72
2022/08/08 14:12:46;;;;;;;2.47;1.10;;;32.30;10.80;;;;;;5028855;28;20463;-72
2022/08/08 14:15:34;;;;;;;3.17;1.13;;;32.30;11.50;;;;;;5031752;28;21005;-72
2022/08/08 14:18:27;;;;;;;2.10;0.97;;;32.30;11.60;;;;;;5036672;28;20452;-72
2022/08/08 14:21:12;;;;;;;2.33;1.10;;;32.40;10.80;;;;;;5039528;28;20467;-72
2022/08/08 14:23:59;;;;;;;3.40;1.40;;;32.40;10.90;;;;;;5030665;28;20451;-72
2022/08/08 14:26:45;;;;;;;3.17;1.23;;;32.40;10.70;;;;;;5035297;28;20448;-72
2022/08/08 14:29:30;;;;;;;3.17;1.30;;;32.30;10.50;;;;;;5043613;28;21056;-72
2022/08/08 14:32:16;;;;;;;3.13;1.33;;;32.30;11.00;;;;;;5035013;28;20609;-72
2022/08/08 14:35:08;;;;;;;2.70;1.10;;;32.30;10.80;;;;;;5037345;28;20849;-72
2022/08/08 14:37:54;;;;;;;4.70;1.70;;;32.30;11.20;;;;;;5031659;28;20949;-72
2022/08/08 14:40:41;;;;;;;3.13;0.90;;;32.30;10.60;;;;;;5034523;28;21142;-72
2022/08/08 14:43:28;;;;;;;3.50;1.00;;;32.40;10.20;;;;;;5036018;28;20448;-72
2022/08/08 14:46:15;;;;;;;2.70;1.40;;;32.30;10.20;;;;;;5051220;28;20793;-72
2022/08/08 14:49:08;;;;;;;2.83;1.13;;;32.20;10.50;;;;;;5033217;28;20453;-72
2022/08/08 14:52:07;;;;;;;11.03;1.27;;;32.20;11.10;;;;;;5037632;28;20479;-73
2022/08/08 14:54:53;;;;;;;3.10;1.07;;;32.20;11.50;;;;;;5038680;28;20595;-72
2022/08/08 14:57:39;;;;;;;2.97;1.27;;;32.30;11.60;;;;;;5045489;28;20515;-72
2022/08/08 15:00:26;;;;;;;3.20;1.03;;;32.10;10.10;;;;;;5037593;28;20439;-72